KICT/ICT METAR and TAF weather

Enter ICAO airport designator
Station Type Date Time Source
KICT METAR 2019/02/22 23:53 UTC NOAA

KICT 222353Z 12009KT 5SM -RA BR OVC006 05/04 A2995 RMK AO2 RAB44 SLP147 P0000 60000 T00500039 10067 20044 58001


Station Type Date Time Source
KICT Decoded METAR 2019/02/22 23:53 UTC NOAA

WICHITA MID-CONTINENT AIRPORT , KS, United States (KICT) 37-39N 97-26W 408M
Feb 22, 2019 - 06:53 PM EST / 2019.02.22 2353 UTC
Wind: from the ESE (120 degrees) at 10 MPH (9 KT):0
Visibility: 5 mile(s):0
Sky conditions: overcast
Weather: light rain; mist
Precipitation last hour: A trace
Temperature: 41.0 F (5.0 C)
Dew Point: 39.0 F (3.9 C)
Relative Humidity: 92%
Pressure (altimeter): 29.95 in. Hg (1014 hPa)
Pressure tendency: 0.00 inches (0.1 hPa) lower than three hours ago
ob: KICT 222353Z 12009KT 5SM -RA BR OVC006 05/04 A2995 RMK AO2 RAB44 SLP147 P0000 60000 T00500039 10067 20044 58001
cycle: 0

Station Type Date Time Source
KICT TAF 2019/02/22 18:45 UTC NOAA

TAF KICT 221742Z 2218/2318 12006KT P6SM OVC017
FM222300 12006KT 5SM -DZ BR OVC005
FM230800 13006KT 1SM BR VCSH OVC002
FM231700 15010KT 4SM SHRA OVC050


Example: see airport list